createdAt,value
2022-09-14T00:00:33.361Z,18.47
2022-09-14T00:05:34.607Z,18.46
2022-09-14T00:10:35.960Z,18.49
2022-09-14T00:15:37.377Z,18.32
2022-09-14T00:20:38.647Z,18.28
2022-09-14T00:25:39.866Z,18.44
2022-09-14T00:30:41.106Z,18.17
2022-09-14T00:35:42.384Z,18.43
2022-09-14T00:40:43.656Z,18.41
2022-09-14T00:45:44.958Z,18.41
2022-09-14T00:50:46.664Z,18.35
2022-09-14T00:55:47.929Z,18.35
2022-09-14T01:00:49.256Z,18.41
2022-09-14T01:05:50.535Z,18.54
2022-09-14T01:10:52.031Z,18.54
2022-09-14T01:15:53.262Z,18.49
2022-09-14T01:20:54.539Z,18.46
2022-09-14T01:25:55.776Z,18.45
2022-09-14T01:30:57.009Z,18.40
2022-09-14T01:35:58.540Z,18.44
2022-09-14T01:40:59.851Z,18.45
2022-09-14T01:46:01.273Z,18.51
2022-09-14T01:51:02.528Z,18.56
2022-09-14T01:56:03.748Z,18.61
2022-09-14T02:01:05.043Z,18.59
2022-09-14T02:06:06.573Z,18.50
2022-09-14T02:11:08.021Z,18.45
2022-09-14T02:16:09.318Z,18.46
2022-09-14T02:21:10.637Z,18.39
2022-09-14T02:26:11.885Z,18.45
2022-09-14T02:31:13.213Z,18.57
2022-09-14T02:36:14.507Z,18.51
2022-09-14T02:41:15.781Z,18.41
2022-09-14T02:46:17.061Z,18.35
2022-09-14T02:51:18.625Z,18.40
2022-09-14T02:56:19.929Z,18.47
2022-09-14T03:01:21.281Z,18.44
2022-09-14T03:06:22.712Z,18.54
2022-09-14T03:11:23.950Z,18.55
2022-09-14T03:16:25.264Z,18.49
2022-09-14T03:21:26.526Z,18.24
2022-09-14T03:26:29.154Z,18.24
2022-09-14T03:31:30.556Z,17.99
2022-09-14T03:36:31.851Z,17.97
2022-09-14T03:41:33.128Z,18.21
2022-09-14T03:46:34.417Z,18.08
2022-09-14T03:51:35.671Z,18.28
2022-09-14T03:56:37.004Z,18.16
2022-09-14T04:01:38.527Z,18.19
2022-09-14T04:06:39.850Z,18.23
2022-09-14T04:11:41.128Z,18.32
2022-09-14T04:16:44.660Z,18.25
2022-09-14T04:21:45.917Z,17.96
2022-09-14T04:26:47.255Z,17.80
2022-09-14T04:31:48.759Z,17.85
2022-09-14T04:36:50.116Z,18.18
2022-09-14T04:41:51.412Z,18.16
2022-09-14T04:46:52.829Z,17.80
2022-09-14T04:51:54.111Z,17.33
2022-09-14T04:56:55.480Z,17.76
2022-09-14T05:01:56.758Z,17.97
2022-09-14T05:06:58.074Z,18.16
2022-09-14T05:11:59.319Z,18.17
2022-09-14T05:17:02.839Z,17.87
2022-09-14T05:22:04.096Z,17.60
2022-09-14T05:27:05.372Z,17.98
2022-09-14T05:32:07.991Z,17.96
2022-09-14T05:37:09.250Z,17.84
2022-09-14T05:42:10.528Z,17.80
2022-09-14T05:47:11.858Z,17.27
2022-09-14T05:52:13.105Z,16.79
2022-09-14T05:57:14.389Z,17.18
2022-09-14T06:02:18.163Z,17.50
2022-09-14T06:07:19.949Z,17.80
2022-09-14T06:12:21.556Z,17.94
2022-09-14T06:17:23.040Z,18.03
2022-09-14T06:22:24.398Z,17.76
2022-09-14T06:27:25.679Z,17.74
2022-09-14T06:32:27.446Z,17.66
2022-09-14T06:37:28.747Z,17.87
2022-09-14T06:42:30.765Z,17.94
2022-09-14T06:47:32.025Z,17.98
2022-09-14T06:52:33.936Z,18.02
2022-09-14T06:57:42.075Z,18.23
2022-09-14T07:02:51.371Z,18.26
2022-09-14T07:07:56.412Z,17.90
2022-09-14T07:12:57.692Z,17.68
2022-09-14T07:18:01.989Z,18.12
2022-09-14T07:23:03.222Z,18.21
2022-09-14T07:28:04.440Z,18.16
2022-09-14T07:33:05.806Z,18.21
2022-09-14T07:38:07.080Z,18.38
2022-09-14T07:43:08.409Z,18.64
2022-09-14T07:48:09.713Z,18.43
2022-09-14T07:53:10.996Z,18.01
2022-09-14T07:58:12.344Z,18.16
2022-09-14T08:03:13.566Z,18.53
2022-09-14T08:08:14.870Z,18.61
2022-09-14T08:13:16.144Z,18.11
2022-09-14T08:18:17.393Z,18.55
2022-09-14T08:23:18.652Z,18.50
2022-09-14T08:28:19.985Z,17.96
2022-09-14T08:33:21.288Z,18.29
2022-09-14T08:38:22.684Z,18.51
2022-09-14T08:43:24.090Z,18.73
2022-09-14T08:48:25.429Z,18.95
2022-09-14T08:53:26.707Z,18.97
2022-09-14T08:58:27.999Z,19.17
2022-09-14T09:03:29.297Z,19.38
2022-09-14T09:08:30.729Z,19.40
2022-09-14T09:13:34.470Z,19.62
2022-09-14T09:18:35.921Z,20.09
2022-09-14T09:23:37.164Z,20.33
2022-09-14T09:28:38.397Z,20.49
2022-09-14T09:33:39.680Z,20.59
2022-09-14T09:38:41.031Z,20.41
2022-09-14T09:43:49.260Z,20.45
2022-09-14T09:48:50.857Z,20.63
2022-09-14T09:53:52.162Z,21.02
2022-09-14T09:58:53.390Z,21.21
2022-09-14T10:03:54.631Z,21.39
2022-09-14T10:08:57.381Z,21.71
2022-09-14T10:13:58.712Z,21.64
2022-09-14T10:19:01.841Z,21.81
2022-09-14T10:29:45.123Z,21.58
2022-09-14T10:34:46.686Z,21.82
2022-09-14T10:39:47.953Z,22.17
2022-09-14T10:44:49.319Z,22.08
2022-09-14T10:49:50.985Z,22.20
2022-09-14T10:54:54.311Z,22.55
2022-09-14T10:59:55.874Z,22.55
2022-09-14T11:04:57.513Z,22.92
2022-09-14T11:10:01.245Z,22.49
2022-09-14T11:15:02.457Z,22.79
2022-09-14T11:20:03.803Z,23.47
2022-09-14T11:25:05.054Z,23.59
2022-09-14T11:30:06.317Z,23.99
2022-09-14T11:35:08.115Z,24.01
2022-09-14T11:40:10.417Z,24.09
2022-09-14T11:45:11.892Z,23.82
2022-09-14T11:50:13.502Z,24.35
2022-09-14T11:55:15.335Z,24.92
2022-09-14T12:00:16.609Z,25.33
2022-09-14T12:05:17.954Z,24.93
2022-09-14T12:10:19.258Z,24.90
2022-09-14T12:15:21.665Z,24.64
2022-09-14T12:20:22.926Z,24.17
2022-09-14T12:25:24.147Z,24.00
2022-09-14T12:30:25.390Z,24.17
2022-09-14T12:35:26.627Z,24.31
2022-09-14T12:40:28.796Z,24.29
2022-09-14T12:45:30.132Z,24.51
2022-09-14T12:50:31.384Z,24.38
2022-09-14T12:55:32.716Z,24.62
2022-09-14T13:00:37.829Z,24.50
2022-09-14T13:05:40.974Z,24.31
2022-09-14T13:10:42.214Z,24.20
2022-09-14T13:15:43.759Z,23.84
2022-09-14T13:20:45.042Z,23.99
2022-09-14T13:25:46.311Z,24.07
2022-09-14T13:30:47.657Z,24.48
2022-09-14T13:35:48.933Z,24.66
2022-09-14T13:40:50.195Z,25.09
2022-09-14T13:45:51.503Z,25.39
2022-09-14T13:50:52.826Z,25.35
2022-09-14T13:55:54.086Z,25.90
2022-09-14T14:00:55.477Z,26.15
2022-09-14T14:05:56.792Z,26.11
2022-09-14T14:10:58.015Z,26.60
2022-09-14T14:15:59.248Z,26.14
2022-09-14T14:21:00.475Z,25.93
2022-09-14T14:26:04.896Z,26.04
2022-09-14T14:31:09.106Z,25.84
2022-09-14T14:36:10.813Z,25.51
2022-09-14T14:41:12.079Z,24.97
2022-09-14T14:46:13.366Z,24.85
2022-09-14T14:51:15.162Z,24.80
2022-09-14T14:56:16.398Z,24.43
2022-09-14T15:01:17.811Z,24.15
2022-09-14T15:06:19.128Z,24.06
2022-09-14T15:11:20.489Z,24.88
2022-09-14T15:16:21.762Z,24.92
2022-09-14T15:21:23.555Z,25.14
2022-09-14T15:26:24.798Z,25.21
2022-09-14T15:31:26.225Z,25.14
2022-09-14T15:36:27.563Z,25.19
2022-09-14T15:41:28.896Z,24.80
2022-09-14T15:46:30.364Z,24.66
2022-09-14T15:51:33.910Z,24.50
2022-09-14T15:56:35.178Z,24.18
2022-09-14T16:01:36.417Z,24.15
2022-09-14T16:06:38.024Z,22.40
2022-09-14T16:11:39.290Z,19.69
2022-09-14T16:16:40.745Z,18.30
2022-09-14T16:21:42.154Z,18.08
2022-09-14T16:26:43.553Z,18.07
2022-09-14T16:31:44.811Z,18.52
2022-09-14T16:36:46.196Z,18.95
2022-09-14T16:41:47.589Z,19.23
2022-09-14T16:46:49.628Z,18.86
2022-09-14T16:51:50.866Z,18.92
2022-09-14T16:56:52.202Z,18.93
2022-09-14T17:01:55.042Z,18.78
2022-09-14T17:06:56.859Z,19.45
2022-09-14T17:11:58.123Z,19.92
2022-09-14T17:16:59.659Z,20.31
2022-09-14T17:22:03.809Z,20.19
2022-09-14T17:27:05.154Z,20.24
2022-09-14T17:32:08.474Z,20.27
2022-09-14T17:37:12.603Z,19.97
2022-09-14T17:42:13.843Z,19.67
2022-09-14T17:47:15.170Z,19.57
2022-09-14T17:52:29.030Z,19.81
2022-09-14T17:57:30.282Z,20.03
2022-09-14T18:02:31.607Z,20.17
2022-09-14T18:07:32.843Z,20.36
2022-09-14T18:12:36.335Z,20.47
2022-09-14T18:17:37.571Z,20.27
2022-09-14T18:22:38.841Z,20.24
2022-09-14T18:27:40.091Z,20.23
2022-09-14T18:32:41.352Z,19.87
2022-09-14T18:37:42.631Z,19.86
2022-09-14T18:42:43.889Z,19.94
2022-09-14T18:47:45.216Z,20.18
2022-09-14T18:52:46.621Z,20.12
2022-09-14T18:57:48.084Z,20.16
2022-09-14T19:02:49.320Z,19.81
2022-09-14T19:07:50.581Z,19.82
2022-09-14T19:12:51.828Z,20.03
2022-09-14T19:17:53.090Z,19.89
2022-09-14T19:22:56.184Z,19.93
2022-09-14T19:27:57.410Z,19.83
2022-09-14T19:32:59.542Z,19.76
2022-09-14T19:38:00.801Z,19.85
2022-09-14T19:43:02.132Z,19.89
2022-09-14T19:48:03.516Z,19.81
2022-09-14T19:53:04.824Z,19.66
2022-09-14T19:58:06.071Z,19.66
2022-09-14T20:03:07.867Z,19.58
2022-09-14T20:08:09.196Z,19.71
2022-09-14T20:13:10.426Z,19.80
2022-09-14T20:18:11.712Z,19.76
2022-09-14T20:23:12.947Z,19.75
2022-09-14T20:28:15.774Z,19.72
2022-09-14T20:33:17.009Z,19.64
2022-09-14T20:38:18.254Z,19.47
2022-09-14T20:43:19.527Z,19.48
2022-09-14T20:48:20.778Z,19.52
2022-09-14T20:53:22.019Z,19.31
2022-09-14T20:58:23.244Z,19.23
2022-09-14T21:03:24.495Z,18.99
2022-09-14T21:08:25.766Z,19.03
2022-09-14T21:13:30.563Z,18.91
2022-09-14T21:18:31.930Z,19.02
2022-09-14T21:23:33.164Z,18.95
2022-09-14T21:28:34.507Z,18.78
2022-09-14T21:33:35.823Z,18.60
2022-09-14T21:38:37.061Z,18.67
2022-09-14T21:43:38.441Z,18.57
2022-09-14T21:48:39.768Z,18.58
2022-09-14T21:53:44.048Z,18.57
2022-09-14T21:58:45.309Z,18.48
2022-09-14T22:03:46.797Z,18.53
2022-09-14T22:08:49.119Z,18.29
2022-09-14T22:13:50.338Z,18.31
2022-09-14T22:18:51.758Z,18.51
2022-09-14T22:23:53.156Z,18.62
2022-09-14T22:28:54.401Z,18.54
2022-09-14T22:33:55.627Z,18.50
2022-09-14T22:38:56.912Z,18.52
2022-09-14T22:43:58.213Z,18.46
2022-09-14T22:48:59.490Z,18.29
2022-09-14T22:54:02.164Z,18.34
2022-09-14T22:59:03.508Z,18.42
2022-09-14T23:04:04.897Z,18.33
2022-09-14T23:09:06.235Z,18.17
2022-09-14T23:14:07.488Z,18.27
2022-09-14T23:19:09.276Z,18.30
2022-09-14T23:24:10.507Z,18.25
2022-09-14T23:29:11.794Z,18.22
2022-09-14T23:34:13.083Z,18.19
2022-09-14T23:39:14.487Z,18.31
2022-09-14T23:44:15.706Z,18.46
2022-09-14T23:49:17.187Z,18.37
2022-09-14T23:54:18.399Z,18.31
2022-09-14T23:59:19.650Z,18.35
